Time;durP1;ratioP1;P1;durP2;ratioP2;P2;SDS_P1;SDS_P2;PMS_P1;PMS_P2;Temp;Humidity;BMP_temperature;BMP_pressure;BME280_temperature;BME280_humidity;BME280_pressure;Samples;Min_cycle;Max_cycle;Signal;HPM_P1;HPM_P2
2023/03/04 00:01:47;;;;;;;15.52;2.88;;;;;;;;;;5031370;28;99943;-75
2023/03/04 00:04:14;;;;;;;11.50;2.55;;;;;;;;;;5031505;27;98152;-75
2023/03/04 00:06:40;;;;;;;11.02;2.63;;;;;;;;;;5029603;27;98519;-75
2023/03/04 00:09:06;;;;;;;21.08;4.60;;;;;;;;;;5030588;28;99201;-77
2023/03/04 00:11:35;;;;;;;21.98;3.45;;;;;;;;;;5034043;28;98281;-76
2023/03/04 00:14:02;;;;;;;14.75;2.88;;;;;;;;;;5030414;27;99043;-76
2023/03/04 00:16:29;;;;;;;15.40;2.90;;;;;;;;;;5030499;28;98241;-75
2023/03/04 00:18:56;;;;;;;15.77;2.42;;;;;;;;;;5013741;28;98701;-75
2023/03/04 00:21:22;;;;;;;16.35;2.53;;;;;;;;;;5010811;28;99894;-74
2023/03/04 00:23:49;;;;;;;17.98;2.50;;;;;;;;;;5010194;28;98258;-76
2023/03/04 00:26:16;;;;;;;10.85;1.83;;;;;;;;;;5014010;28;99346;-74
2023/03/04 00:28:43;;;;;;;11.20;3.15;;;;;;;;;;5011123;28;98895;-74
2023/03/04 00:31:09;;;;;;;8.35;1.90;;;;;;;;;;5009557;28;98291;-75
2023/03/04 00:33:36;;;;;;;12.23;2.90;;;;;;;;;;5015952;28;98534;-75
2023/03/04 00:36:03;;;;;;;19.13;2.63;;;;;;;;;;5031034;27;98285;-75
2023/03/04 00:38:30;;;;;;;13.77;2.47;;;;;;;;;;5031213;28;98793;-75
2023/03/04 00:40:56;;;;;;;12.27;2.55;;;;;;;;;;5028353;28;102034;-75
2023/03/04 00:43:23;;;;;;;9.13;2.95;;;;;;;;;;5031182;28;98253;-75
2023/03/04 00:45:52;;;;;;;17.55;3.42;;;;;;;;;;5029463;27;98870;-75
2023/03/04 00:48:18;;;;;;;13.77;3.35;;;;;;;;;;5028451;28;100975;-75
2023/03/04 00:50:45;;;;;;;10.82;2.05;;;;;;;;;;5028009;28;98256;-75
2023/03/04 00:53:11;;;;;;;16.83;3.53;;;;;;;;;;5030354;28;98618;-75
2023/03/04 00:55:37;;;;;;;19.55;3.40;;;;;;;;;;5031718;28;98812;-75
2023/03/04 00:58:04;;;;;;;11.45;2.20;;;;;;;;;;5030160;28;100985;-74
2023/03/04 01:00:30;;;;;;;10.75;2.45;;;;;;;;;;5030377;28;99371;-75
2023/03/04 01:02:56;;;;;;;11.77;2.97;;;;;;;;;;5029789;28;98245;-74
2023/03/04 01:05:23;;;;;;;12.07;2.30;;;;;;;;;;5028898;28;100454;-75
2023/03/04 01:07:49;;;;;;;19.75;3.42;;;;;;;;;;5028625;28;99018;-75
2023/03/04 01:10:16;;;;;;;13.48;2.22;;;;;;;;;;5030235;27;98322;-75
2023/03/04 01:12:43;;;;;;;13.80;3.30;;;;;;;;;;5030746;28;98467;-75
2023/03/04 01:15:11;;;;;;;13.23;3.25;;;;;;;;;;5029067;27;98739;-75
2023/03/04 01:17:39;;;;;;;10.70;2.60;;;;;;;;;;5029034;27;98215;-74
2023/03/04 01:20:07;;;;;;;14.77;3.67;;;;;;;;;;5008976;28;99218;-75
2023/03/04 01:22:34;;;;;;;13.10;2.88;;;;;;;;;;5030421;27;98296;-75
2023/03/04 01:25:00;;;;;;;13.02;2.83;;;;;;;;;;5023549;28;99463;-75
2023/03/04 01:27:27;;;;;;;13.70;2.85;;;;;;;;;;5010072;28;98916;-75
2023/03/04 01:29:53;;;;;;;18.95;2.92;;;;;;;;;;5009168;28;98263;-76
2023/03/04 01:32:21;;;;;;;13.93;2.90;;;;;;;;;;5010312;28;98517;-74
2023/03/04 01:34:47;;;;;;;14.98;2.47;;;;;;;;;;5009378;28;99843;-75
2023/03/04 01:37:14;;;;;;;8.80;2.55;;;;;;;;;;5013096;28;98264;-74
2023/03/04 01:39:40;;;;;;;13.13;2.53;;;;;;;;;;5009859;28;98763;-76
2023/03/04 01:42:13;;;;;;;16.83;2.80;;;;;;;;;;5009777;28;98937;-75
2023/03/04 01:44:40;;;;;;;12.98;2.97;;;;;;;;;;5008209;28;98341;-76
2023/03/04 01:47:08;;;;;;;14.85;2.78;;;;;;;;;;5009392;28;100421;-75
2023/03/04 01:49:34;;;;;;;17.77;3.00;;;;;;;;;;5041724;27;98288;-75
2023/03/04 01:52:00;;;;;;;18.52;3.17;;;;;;;;;;5008786;28;98810;-75
2023/03/04 01:54:28;;;;;;;19.13;3.25;;;;;;;;;;5009326;28;99410;-75
2023/03/04 01:56:55;;;;;;;17.83;2.78;;;;;;;;;;5009784;28;98020;-74
2023/03/04 01:59:29;;;;;;;13.88;2.78;;;;;;;;;;5044244;27;101001;-76
2023/03/04 02:01:57;;;;;;;15.32;2.30;;;;;;;;;;5009899;28;98104;-75
2023/03/04 02:04:25;;;;;;;9.40;2.13;;;;;;;;;;5008506;28;99706;-75
2023/03/04 02:06:52;;;;;;;11.43;1.90;;;;;;;;;;5008879;28;98895;-76
2023/03/04 02:09:19;;;;;;;11.88;2.30;;;;;;;;;;5008531;28;98323;-76
2023/03/04 02:11:46;;;;;;;16.92;2.30;;;;;;;;;;5007010;28;100956;-75
2023/03/04 02:14:13;;;;;;;13.70;2.22;;;;;;;;;;5009295;28;98856;-76
2023/03/04 02:16:40;;;;;;;10.32;2.10;;;;;;;;;;5044376;27;98399;-76
2023/03/04 02:19:13;;;;;;;7.55;2.00;;;;;;;;;;5028441;28;98475;-76
2023/03/04 02:21:42;;;;;;;20.05;3.55;;;;;;;;;;5032375;28;99916;-74
2023/03/04 02:24:18;;;;;;;7.78;2.85;;;;;;;;;;5029141;27;98544;-75
2023/03/04 02:26:45;;;;;;;15.38;2.90;;;;;;;;;;5026029;28;101060;-75
2023/03/04 02:29:13;;;;;;;9.23;2.17;;;;;;;;;;5024281;28;98331;-75
2023/03/04 02:31:44;;;;;;;20.02;2.97;;;;;;;;;;5006845;28;100778;-75
2023/03/04 02:34:12;;;;;;;12.88;1.83;;;;;;;;;;5022552;28;101362;-75
2023/03/04 02:36:39;;;;;;;4.25;1.52;;;;;;;;;;5027337;28;98644;-74
2023/03/04 02:39:10;;;;;;;10.73;2.72;;;;;;;;;;5026521;28;99302;-74
2023/03/04 02:41:36;;;;;;;5.63;1.50;;;;;;;;;;5027236;28;100951;-74
2023/03/04 02:44:14;;;;;;;9.63;2.35;;;;;;;;;;5031107;28;98517;-74
2023/03/04 02:46:40;;;;;;;10.70;2.47;;;;;;;;;;5026701;28;100367;-74
2023/03/04 02:49:07;;;;;;;8.27;1.65;;;;;;;;;;5027213;28;98248;-75
2023/03/04 02:51:33;;;;;;;16.42;3.10;;;;;;;;;;5028525;28;98742;-74
2023/03/04 02:54:00;;;;;;;11.77;2.67;;;;;;;;;;5027375;27;98858;-74
2023/03/04 02:56:26;;;;;;;8.85;2.55;;;;;;;;;;5027492;28;98260;-76
2023/03/04 02:58:53;;;;;;;12.57;3.13;;;;;;;;;;5026561;28;99230;-76
2023/03/04 03:01:19;;;;;;;14.18;2.95;;;;;;;;;;5025998;28;101195;-74
2023/03/04 03:03:45;;;;;;;8.43;2.85;;;;;;;;;;5027616;28;98311;-74
2023/03/04 03:06:12;;;;;;;10.13;1.98;;;;;;;;;;5031555;28;99284;-75
2023/03/04 03:08:39;;;;;;;13.40;3.17;;;;;;;;;;5022232;27;98416;-76
2023/03/04 03:11:05;;;;;;;11.25;2.20;;;;;;;;;;5011562;28;99560;-76
2023/03/04 03:13:35;;;;;;;11.70;2.45;;;;;;;;;;5010653;28;101299;-75
2023/03/04 03:16:01;;;;;;;12.38;2.25;;;;;;;;;;5011728;28;98223;-75
2023/03/04 03:18:30;;;;;;;11.23;2.22;;;;;;;;;;5012512;28;98572;-76
2023/03/04 03:20:56;;;;;;;11.77;2.03;;;;;;;;;;5027271;28;100170;-76
2023/03/04 03:23:23;;;;;;;13.80;2.78;;;;;;;;;;5027229;28;98235;-75
2023/03/04 03:25:50;;;;;;;14.48;3.63;;;;;;;;;;5030701;28;100925;-76
2023/03/04 03:28:19;;;;;;;8.23;2.35;;;;;;;;;;5034838;27;98738;-76
2023/03/04 03:30:45;;;;;;;13.27;2.83;;;;;;;;;;5030787;28;99386;-76
2023/03/04 03:33:13;;;;;;;13.40;1.95;;;;;;;;;;5032542;28;98739;-76
2023/03/04 03:35:40;;;;;;;13.63;2.08;;;;;;;;;;5036644;28;98524;-76
2023/03/04 03:38:10;;;;;;;14.52;2.30;;;;;;;;;;5041589;27;100152;-76
2023/03/04 03:40:36;;;;;;;10.48;2.08;;;;;;;;;;5037855;28;98047;-75
2023/03/04 03:43:03;;;;;;;14.60;2.28;;;;;;;;;;5016782;28;98343;-75
2023/03/04 03:45:29;;;;;;;11.13;2.30;;;;;;;;;;5021182;28;98723;-76
2023/03/04 03:47:55;;;;;;;10.95;2.33;;;;;;;;;;5024974;28;98034;-76
2023/03/04 03:50:22;;;;;;;11.50;3.58;;;;;;;;;;5018225;28;99344;-75
2023/03/04 03:52:48;;;;;;;2.85;1.38;;;;;;;;;;5012749;28;100050;-76
2023/03/04 03:55:15;;;;;;;15.13;2.50;;;;;;;;;;5013056;28;98263;-76
2023/03/04 03:57:41;;;;;;;10.55;2.22;;;;;;;;;;5011411;28;99383;-76
2023/03/04 04:00:09;;;;;;;10.82;1.65;;;;;;;;;;5011204;28;98695;-75
2023/03/04 04:02:38;;;;;;;7.13;2.50;;;;;;;;;;5012093;28;98633;-76
2023/03/04 04:05:06;;;;;;;17.45;3.70;;;;;;;;;;5010465;28;99604;-76
2023/03/04 04:07:32;;;;;;;7.10;2.05;;;;;;;;;;5010874;28;100093;-75
2023/03/04 04:10:01;;;;;;;1.90;1.42;;;;;;;;;;5014198;28;98259;-75
2023/03/04 04:12:28;;;;;;;5.78;1.42;;;;;;;;;;5008746;28;99502;-75
2023/03/04 04:14:54;;;;;;;12.80;3.45;;;;;;;;;;5011631;28;98245;-75
2023/03/04 04:17:22;;;;;;;12.45;2.15;;;;;;;;;;5013024;28;98777;-75
2023/03/04 04:19:49;;;;;;;6.05;1.67;;;;;;;;;;5029511;27;99973;-75
2023/03/04 04:22:17;;;;;;;8.85;1.92;;;;;;;;;;5029514;28;98237;-75
2023/03/04 04:24:44;;;;;;;4.82;1.75;;;;;;;;;;5030674;28;99713;-75
2023/03/04 04:27:10;;;;;;;10.63;1.90;;;;;;;;;;5028525;27;99823;-75
2023/03/04 04:29:37;;;;;;;13.82;1.67;;;;;;;;;;5014742;27;98242;-75
2023/03/04 04:32:07;;;;;;;8.85;1.92;;;;;;;;;;5013604;28;98714;-75
2023/03/04 04:34:34;;;;;;;13.63;2.58;;;;;;;;;;5010974;28;98246;-75
2023/03/04 04:37:00;;;;;;;7.82;1.98;;;;;;;;;;5009749;28;98891;-75
2023/03/04 04:39:26;;;;;;;18.27;1.92;;;;;;;;;;5009454;28;100058;-75
2023/03/04 04:41:53;;;;;;;10.63;2.03;;;;;;;;;;5010482;28;98582;-75
2023/03/04 04:44:21;;;;;;;6.25;2.05;;;;;;;;;;5010638;28;99699;-75
2023/03/04 04:46:48;;;;;;;8.93;1.95;;;;;;;;;;5009462;28;99922;-75
2023/03/04 04:49:14;;;;;;;14.38;2.40;;;;;;;;;;5018751;27;98943;-74
2023/03/04 04:51:40;;;;;;;11.48;2.03;;;;;;;;;;5048490;27;100990;-74
2023/03/04 04:54:07;;;;;;;8.48;2.00;;;;;;;;;;5052885;27;100005;-74
2023/03/04 04:56:33;;;;;;;15.50;2.35;;;;;;;;;;5050903;27;99573;-74
2023/03/04 04:59:02;;;;;;;7.32;1.95;;;;;;;;;;5050026;27;100171;-75
2023/03/04 05:01:28;;;;;;;16.80;2.47;;;;;;;;;;5049105;27;98568;-76
2023/03/04 05:03:55;;;;;;;11.70;1.85;;;;;;;;;;5050530;27;99754;-76
2023/03/04 05:06:22;;;;;;;6.43;1.70;;;;;;;;;;5031246;27;100106;-74
2023/03/04 05:08:49;;;;;;;11.23;1.90;;;;;;;;;;5009547;28;98153;-74
2023/03/04 05:11:18;;;;;;;13.00;1.70;;;;;;;;;;5010323;28;98416;-74
2023/03/04 05:13:45;;;;;;;17.83;2.95;;;;;;;;;;5009782;28;99109;-75
2023/03/04 05:16:12;;;;;;;10.45;2.25;;;;;;;;;;5012732;28;98395;-74
2023/03/04 05:18:38;;;;;;;12.85;2.25;;;;;;;;;;5022577;28;99850;-74
2023/03/04 05:21:05;;;;;;;7.85;2.45;;;;;;;;;;5028487;27;98485;-75
2023/03/04 05:23:32;;;;;;;13.98;3.63;;;;;;;;;;5018992;27;98571;-76
2023/03/04 05:25:59;;;;;;;15.85;2.40;;;;;;;;;;5008930;28;101013;-75
2023/03/04 05:28:25;;;;;;;6.60;1.90;;;;;;;;;;5009124;28;98222;-75
2023/03/04 05:30:52;;;;;;;4.80;1.67;;;;;;;;;;5009651;28;98716;-76
2023/03/04 05:33:21;;;;;;;14.98;2.13;;;;;;;;;;5009416;28;100036;-75
2023/03/04 05:35:48;;;;;;;8.27;1.90;;;;;;;;;;5009287;28;98220;-75
2023/03/04 05:38:16;;;;;;;9.70;2.00;;;;;;;;;;5012796;28;99282;-75
2023/03/04 05:40:43;;;;;;;10.95;1.80;;;;;;;;;;5010002;28;98231;-75
2023/03/04 05:43:10;;;;;;;7.05;1.85;;;;;;;;;;5008742;28;98662;-76
2023/03/04 05:45:36;;;;;;;12.02;2.00;;;;;;;;;;5009404;28;99197;-76
2023/03/04 05:48:03;;;;;;;11.80;2.40;;;;;;;;;;5010523;28;98260;-75
2023/03/04 05:50:30;;;;;;;10.43;2.13;;;;;;;;;;5008383;28;99334;-75
2023/03/04 05:52:56;;;;;;;13.45;2.40;;;;;;;;;;5009400;28;99865;-75
2023/03/04 05:55:23;;;;;;;7.45;2.00;;;;;;;;;;5009288;28;98185;-75
2023/03/04 05:57:49;;;;;;;10.55;1.80;;;;;;;;;;5011391;28;98700;-75
2023/03/04 06:00:15;;;;;;;3.88;1.60;;;;;;;;;;5009574;28;98251;-74
2023/03/04 06:02:43;;;;;;;10.25;1.90;;;;;;;;;;5025840;28;99389;-74
2023/03/04 06:05:10;;;;;;;13.25;2.50;;;;;;;;;;5028408;27;99898;-74
2023/03/04 06:07:36;;;;;;;9.60;2.00;;;;;;;;;;5025264;27;99434;-74
2023/03/04 06:10:03;;;;;;;11.40;2.28;;;;;;;;;;5009218;28;99638;-74
2023/03/04 06:12:30;;;;;;;15.25;2.00;;;;;;;;;;5022019;27;99469;-75
2023/03/04 06:14:57;;;;;;;9.15;2.08;;;;;;;;;;5026640;27;99610;-75
2023/03/04 06:17:23;;;;;;;7.13;1.52;;;;;;;;;;5028230;28;99338;-74
2023/03/04 06:19:50;;;;;;;14.75;2.10;;;;;;;;;;5024427;28;99284;-75
2023/03/04 06:22:16;;;;;;;7.60;1.95;;;;;;;;;;5028917;28;99577;-76
2023/03/04 06:24:42;;;;;;;9.35;2.03;;;;;;;;;;5019293;27;99999;-77
2023/03/04 06:27:09;;;;;;;15.02;2.53;;;;;;;;;;5016902;28;100410;-76
2023/03/04 06:29:35;;;;;;;7.50;2.00;;;;;;;;;;5016414;28;99835;-78
2023/03/04 06:32:01;;;;;;;15.35;2.05;;;;;;;;;;5028228;27;99153;-77
2023/03/04 06:34:28;;;;;;;3.75;1.73;;;;;;;;;;5029704;27;98810;-78
2023/03/04 06:36:55;;;;;;;16.02;2.50;;;;;;;;;;5028820;27;99417;-78
2023/03/04 06:39:21;;;;;;;8.55;2.05;;;;;;;;;;5027969;28;99344;-78
2023/03/04 06:41:48;;;;;;;11.38;3.55;;;;;;;;;;5032505;28;98313;-77
2023/03/04 06:44:14;;;;;;;13.15;2.55;;;;;;;;;;5029661;28;99943;-78
2023/03/04 06:46:42;;;;;;;10.25;1.95;;;;;;;;;;5032142;27;98021;-78
2023/03/04 06:49:08;;;;;;;19.63;2.25;;;;;;;;;;5032726;28;99303;-77
2023/03/04 06:51:35;;;;;;;8.43;1.70;;;;;;;;;;5033234;28;100000;-77
2023/03/04 06:54:01;;;;;;;12.40;2.88;;;;;;;;;;5032043;28;98234;-78
2023/03/04 06:56:28;;;;;;;10.07;1.85;;;;;;;;;;5032510;28;98677;-78
2023/03/04 06:58:54;;;;;;;6.53;2.40;;;;;;;;;;5025855;27;99095;-78
2023/03/04 07:01:22;;;;;;;6.82;1.90;;;;;;;;;;5011931;28;98348;-78
2023/03/04 07:03:50;;;;;;;7.80;2.17;;;;;;;;;;5015036;28;99475;-77
2023/03/04 07:06:17;;;;;;;12.05;2.47;;;;;;;;;;5013001;28;98404;-78
2023/03/04 07:08:44;;;;;;;13.45;2.40;;;;;;;;;;5012664;28;99660;-78
2023/03/04 07:11:10;;;;;;;10.32;2.00;;;;;;;;;;5012131;28;99935;-77
2023/03/04 07:13:37;;;;;;;4.38;1.70;;;;;;;;;;5011410;28;98262;-77
2023/03/04 07:16:04;;;;;;;7.95;1.70;;;;;;;;;;5013227;28;98532;-77
2023/03/04 07:18:31;;;;;;;6.70;1.40;;;;;;;;;;5015306;27;100111;-77
2023/03/04 07:20:57;;;;;;;4.43;1.40;;;;;;;;;;5012225;28;98268;-77
2023/03/04 07:23:23;;;;;;;8.35;1.85;;;;;;;;;;5013061;28;99120;-77
2023/03/04 07:25:52;;;;;;;7.10;1.75;;;;;;;;;;5014554;28;99048;-77
2023/03/04 07:28:19;;;;;;;7.35;1.65;;;;;;;;;;5011180;28;99434;-77
2023/03/04 07:30:48;;;;;;;6.38;1.52;;;;;;;;;;5012332;28;100073;-79
2023/03/04 07:33:14;;;;;;;10.05;1.70;;;;;;;;;;5016139;28;98274;-77
2023/03/04 07:35:40;;;;;;;7.82;1.63;;;;;;;;;;5011081;28;99298;-77
2023/03/04 07:38:07;;;;;;;10.27;1.80;;;;;;;;;;5012208;28;99626;-78
2023/03/04 07:40:33;;;;;;;3.67;1.58;;;;;;;;;;5012290;28;98323;-78
2023/03/04 07:43:00;;;;;;;7.65;1.75;;;;;;;;;;5011371;28;98486;-77
2023/03/04 07:45:27;;;;;;;9.18;1.70;;;;;;;;;;5012324;28;99059;-74
2023/03/04 07:47:53;;;;;;;8.02;1.85;;;;;;;;;;5015212;28;98167;-73
2023/03/04 07:50:22;;;;;;;7.18;1.50;;;;;;;;;;5010703;28;100357;-75
2023/03/04 07:52:50;;;;;;;9.10;2.05;;;;;;;;;;5010759;28;98181;-78
2023/03/04 07:55:17;;;;;;;10.50;1.98;;;;;;;;;;5010643;28;99127;-77
2023/03/04 07:57:45;;;;;;;1.25;1.15;;;;;;;;;;5010421;28;100107;-78
2023/03/04 08:00:13;;;;;;;3.67;1.20;;;;;;;;;;5011062;28;98577;-78
2023/03/04 08:02:40;;;;;;;8.57;2.22;;;;;;;;;;5012003;28;98562;-78
2023/03/04 08:05:07;;;;;;;10.13;1.90;;;;;;;;;;5010696;28;98936;-78
2023/03/04 08:07:33;;;;;;;7.18;1.27;;;;;;;;;;5014724;28;98340;-77
2023/03/04 08:10:00;;;;;;;12.57;1.73;;;;;;;;;;5010915;28;100202;-78
2023/03/04 08:12:26;;;;;;;11.27;1.92;;;;;;;;;;5011152;28;98328;-77
2023/03/04 08:14:53;;;;;;;9.45;1.90;;;;;;;;;;5011205;28;98662;-78
2023/03/04 08:17:19;;;;;;;5.72;2.15;;;;;;;;;;5010008;28;98973;-77
2023/03/04 08:19:46;;;;;;;6.38;1.95;;;;;;;;;;5011874;28;99087;-77
2023/03/04 08:22:12;;;;;;;8.15;2.17;;;;;;;;;;5011153;28;100391;-77
2023/03/04 08:24:38;;;;;;;9.00;1.52;;;;;;;;;;5010477;28;100017;-77
2023/03/04 08:27:05;;;;;;;7.20;1.60;;;;;;;;;;5011297;28;97967;-78
2023/03/04 08:29:31;;;;;;;7.72;1.27;;;;;;;;;;5014517;28;99500;-77
2023/03/04 08:32:00;;;;;;;8.07;1.45;;;;;;;;;;5009446;28;98248;-76
2023/03/04 08:34:28;;;;;;;7.88;1.63;;;;;;;;;;5011440;28;98737;-77
2023/03/04 08:36:54;;;;;;;5.38;1.48;;;;;;;;;;5010379;28;100183;-75
2023/03/04 08:39:21;;;;;;;2.80;1.30;;;;;;;;;;5010239;28;98185;-76
2023/03/04 08:41:49;;;;;;;6.22;1.65;;;;;;;;;;5009255;28;99382;-78
2023/03/04 08:44:16;;;;;;;7.72;2.00;;;;;;;;;;5011603;28;99284;-76
2023/03/04 08:46:42;;;;;;;1.25;1.08;;;;;;;;;;5010296;28;98290;-76
2023/03/04 08:49:10;;;;;;;4.82;1.55;;;;;;;;;;5010462;28;99468;-76
2023/03/04 08:51:36;;;;;;;7.63;1.92;;;;;;;;;;5013516;28;98968;-76
2023/03/04 08:54:03;;;;;;;6.97;1.35;;;;;;;;;;5009698;28;99593;-76
2023/03/04 08:56:29;;;;;;;10.15;1.58;;;;;;;;;;5011155;28;99987;-76
2023/03/04 08:58:56;;;;;;;1.80;0.95;;;;;;;;;;5011257;28;98064;-76
2023/03/04 09:01:22;;;;;;;9.68;2.10;;;;;;;;;;5009347;28;99475;-77
2023/03/04 09:03:49;;;;;;;4.38;1.02;;;;;;;;;;5010096;28;100105;-76
2023/03/04 09:06:16;;;;;;;4.50;1.58;;;;;;;;;;5010726;28;98213;-76
2023/03/04 09:08:43;;;;;;;4.85;1.55;;;;;;;;;;5029868;27;99791;-76
2023/03/04 09:11:10;;;;;;;3.10;1.52;;;;;;;;;;5029812;27;99981;-77
2023/03/04 09:13:37;;;;;;;4.50;1.20;;;;;;;;;;5032141;27;98549;-75
2023/03/04 09:16:07;;;;;;;5.32;1.67;;;;;;;;;;5024696;27;99245;-76
2023/03/04 09:18:34;;;;;;;5.38;1.45;;;;;;;;;;5030598;27;98331;-77
2023/03/04 09:21:00;;;;;;;1.83;1.10;;;;;;;;;;5029936;28;99787;-77
2023/03/04 09:23:26;;;;;;;3.28;1.05;;;;;;;;;;5024603;28;99019;-77
2023/03/04 09:25:53;;;;;;;2.53;1.00;;;;;;;;;;5022857;27;99107;-77
2023/03/04 09:28:19;;;;;;;9.77;1.63;;;;;;;;;;5021033;28;99905;-76
2023/03/04 09:30:46;;;;;;;1.92;1.05;;;;;;;;;;5021891;27;100116;-76
2023/03/04 09:33:14;;;;;;;4.03;1.67;;;;;;;;;;5026043;27;98254;-76
2023/03/04 09:35:41;;;;;;;1.92;1.02;;;;;;;;;;5031012;27;99684;-77
2023/03/04 09:38:08;;;;;;;4.60;1.20;;;;;;;;;;5030288;27;98595;-76
2023/03/04 09:40:45;;;;;;;2.47;0.80;;;;;;;;;;5029693;28;99402;-76
2023/03/04 09:43:17;;;;;;;1.58;1.15;;;;;;;;;;5028809;28;100016;-75
2023/03/04 09:45:46;;;;;;;6.50;1.00;;;;;;;;;;5022133;28;99123;-76
2023/03/04 09:48:14;;;;;;;1.30;1.17;;;;;;;;;;5022960;28;99655;-76
2023/03/04 09:50:45;;;;;;;3.63;1.15;;;;;;;;;;5038316;28;100181;-77
2023/03/04 09:53:18;;;;;;;5.72;1.45;;;;;;;;;;5037265;27;98147;-77
2023/03/04 09:55:48;;;;;;;4.40;1.17;;;;;;;;;;5035509;27;99391;-77
2023/03/04 09:58:14;;;;;;;3.25;1.08;;;;;;;;;;5037457;27;98298;-75
2023/03/04 10:00:42;;;;;;;8.20;1.38;;;;;;;;;;5033058;27;98415;-76
2023/03/04 10:03:17;;;;;;;3.42;1.50;;;;;;;;;;5028945;27;100065;-76
2023/03/04 10:05:54;;;;;;;7.60;1.40;;;;;;;;;;5030292;27;98079;-76
2023/03/04 10:08:35;;;;;;;6.30;1.20;;;;;;;;;;5028536;27;98752;-76
2023/03/04 10:11:03;;;;;;;2.28;1.00;;;;;;;;;;5020170;27;99118;-77
2023/03/04 10:13:39;;;;;;;6.40;0.93;;;;;;;;;;5009160;28;98266;-76
2023/03/04 10:16:08;;;;;;;3.35;1.23;;;;;;;;;;5017490;27;98738;-75
2023/03/04 10:18:40;;;;;;;1.85;1.00;;;;;;;;;;5027083;28;99896;-76
2023/03/04 10:21:06;;;;;;;4.23;1.33;;;;;;;;;;5024368;27;98626;-75
2023/03/04 10:23:33;;;;;;;7.05;1.70;;;;;;;;;;5015361;28;101138;-76
2023/03/04 10:26:08;;;;;;;2.75;1.25;;;;;;;;;;5027528;27;98219;-75
2023/03/04 10:28:35;;;;;;;3.63;1.30;;;;;;;;;;5029303;27;99621;-76
2023/03/04 10:31:06;;;;;;;6.03;1.15;;;;;;;;;;5026498;27;99909;-77
2023/03/04 10:33:34;;;;;;;8.45;1.10;;;;;;;;;;5024219;28;98570;-76
2023/03/04 10:36:04;;;;;;;5.45;1.38;;;;;;;;;;5018101;28;98802;-76
2023/03/04 10:38:33;;;;;;;2.15;0.90;;;;;;;;;;5021876;28;100106;-76
2023/03/04 10:40:59;;;;;;;3.00;1.05;;;;;;;;;;5020334;27;98528;-76
2023/03/04 10:43:26;;;;;;;5.50;1.13;;;;;;;;;;5018295;28;100301;-76
2023/03/04 10:46:00;;;;;;;2.45;1.10;;;;;;;;;;5025205;27;99863;-77
2023/03/04 10:48:27;;;;;;;1.88;1.00;;;;;;;;;;5029386;27;99373;-77
2023/03/04 10:51:09;;;;;;;2.47;1.33;;;;;;;;;;5025930;27;99460;-76
2023/03/04 10:53:38;;;;;;;2.35;0.93;;;;;;;;;;5026569;27;98150;-77
2023/03/04 10:56:24;;;;;;;1.17;1.08;;;;;;;;;;5028154;27;99324;-77
2023/03/04 10:58:51;;;;;;;7.53;1.77;;;;;;;;;;5008807;28;100214;-76
2023/03/04 11:01:24;;;;;;;2.40;0.85;;;;;;;;;;5021116;27;98449;-77
2023/03/04 11:03:51;;;;;;;2.63;1.20;;;;;;;;;;5026277;27;99653;-77
2023/03/04 11:06:24;;;;;;;5.60;1.10;;;;;;;;;;5017784;28;99492;-76
2023/03/04 11:08:57;;;;;;;3.17;1.35;;;;;;;;;;5025113;27;98647;-76
2023/03/04 11:11:28;;;;;;;5.55;1.23;;;;;;;;;;5026765;27;99649;-76
2023/03/04 11:13:59;;;;;;;4.75;1.67;;;;;;;;;;5026014;27;98460;-75
2023/03/04 11:16:26;;;;;;;4.32;1.20;;;;;;;;;;5020948;28;98930;-76
2023/03/04 11:18:55;;;;;;;3.65;1.10;;;;;;;;;;5028474;27;99040;-75
2023/03/04 11:21:24;;;;;;;1.45;0.93;;;;;;;;;;5027364;27;98701;-74
2023/03/04 11:23:57;;;;;;;2.08;0.90;;;;;;;;;;5025011;28;99685;-74
2023/03/04 11:26:41;;;;;;;1.05;0.65;;;;;;;;;;5030113;27;99132;-74
2023/03/04 11:29:08;;;;;;;2.70;0.90;;;;;;;;;;5027560;27;99179;-75
2023/03/04 11:31:42;;;;;;;2.80;1.38;;;;;;;;;;5030348;27;99028;-75
2023/03/04 11:34:47;;;;;;;5.57;1.27;;;;;;;;;;5029488;28;98146;-75
2023/03/04 11:37:15;;;;;;;5.32;1.83;;;;;;;;;;4929753;28;99414;-78
2023/03/04 11:39:54;;;;;;;6.03;1.70;;;;;;;;;;5003030;28;99945;-76
2023/03/04 11:42:40;;;;;;;8.57;1.52;;;;;;;;;;5011089;27;98394;-77
2023/03/04 11:45:17;;;;;;;14.52;1.63;;;;;;;;;;5022900;27;98679;-77
2023/03/04 11:48:07;;;;;;;14.07;2.03;;;;;;;;;;5030369;27;99936;-76
2023/03/04 11:50:44;;;;;;;5.10;1.27;;;;;;;;;;5033889;28;98490;-77
2023/03/04 11:53:29;;;;;;;16.52;2.88;;;;;;;;;;5025264;27;99737;-77
2023/03/04 11:56:02;;;;;;;13.13;1.95;;;;;;;;;;5017574;28;98867;-77
2023/03/04 11:58:35;;;;;;;7.20;1.70;;;;;;;;;;5026103;28;99314;-77
2023/03/04 12:01:20;;;;;;;5.93;1.50;;;;;;;;;;5023979;28;98898;-77
2023/03/04 12:03:57;;;;;;;4.43;1.65;;;;;;;;;;5030075;28;98362;-77
2023/03/04 12:06:32;;;;;;;12.93;1.75;;;;;;;;;;5031984;28;99405;-75
2023/03/04 12:09:27;;;;;;;14.80;2.65;;;;;;;;;;5026199;27;99107;-76
2023/03/04 12:12:21;;;;;;;7.82;2.10;;;;;;;;;;5006000;28;98316;-75
2023/03/04 12:15:13;;;;;;;18.13;2.13;;;;;;;;;;5011076;28;98959;-76
2023/03/04 12:17:57;;;;;;;7.53;1.50;;;;;;;;;;5013276;27;98283;-76
2023/03/04 12:20:37;;;;;;;9.98;1.85;;;;;;;;;;5030771;27;98556;-76
2023/03/04 12:23:11;;;;;;;7.63;1.70;;;;;;;;;;5030300;28;100082;-76
2023/03/04 12:25:40;;;;;;;5.88;1.52;;;;;;;;;;5026415;28;98637;-77
2023/03/04 12:28:07;;;;;;;12.70;2.38;;;;;;;;;;5026821;28;99994;-76
2023/03/04 12:30:39;;;;;;;10.10;2.22;;;;;;;;;;5028754;28;100154;-76
2023/03/04 12:33:40;;;;;;;15.57;1.90;;;;;;;;;;5028750;27;98472;-76
2023/03/04 12:36:25;;;;;;;6.85;1.50;;;;;;;;;;4966172;28;98848;-77
2023/03/04 12:38:57;;;;;;;6.95;1.92;;;;;;;;;;5023295;27;98946;-76
2023/03/04 12:41:42;;;;;;;9.80;1.60;;;;;;;;;;5030338;27;99622;-76
2023/03/04 12:44:15;;;;;;;17.35;2.28;;;;;;;;;;5026482;28;100507;-76
2023/03/04 12:47:05;;;;;;;11.60;1.85;;;;;;;;;;5030726;27;98250;-75
2023/03/04 12:49:40;;;;;;;9.95;2.53;;;;;;;;;;5031003;28;99815;-76
2023/03/04 12:52:22;;;;;;;11.27;2.90;;;;;;;;;;5026782;27;100105;-75
2023/03/04 12:54:50;;;;;;;5.18;1.80;;;;;;;;;;5029957;28;98560;-77
2023/03/04 12:57:21;;;;;;;16.40;4.40;;;;;;;;;;5029684;28;99457;-78
2023/03/04 12:59:51;;;;;;;10.52;2.47;;;;;;;;;;5028609;27;99054;-77
2023/03/04 13:02:30;;;;;;;9.55;2.33;;;;;;;;;;5024339;28;98752;-76
2023/03/04 13:05:02;;;;;;;12.88;2.53;;;;;;;;;;5029702;28;99353;-77
2023/03/04 13:07:57;;;;;;;13.50;2.60;;;;;;;;;;5030201;27;98709;-77
2023/03/04 13:10:25;;;;;;;16.85;2.80;;;;;;;;;;5011727;27;98321;-78
2023/03/04 13:12:59;;;;;;;21.40;3.53;;;;;;;;;;5022088;28;100163;-77
2023/03/04 13:15:30;;;;;;;14.77;2.70;;;;;;;;;;5028199;27;98393;-77
2023/03/04 13:17:58;;;;;;;15.07;2.30;;;;;;;;;;5028224;27;98232;-76
2023/03/04 13:20:33;;;;;;;17.02;2.95;;;;;;;;;;5028550;27;99112;-76
2023/03/04 13:23:06;;;;;;;10.80;2.90;;;;;;;;;;5026995;27;98253;-76
2023/03/04 13:25:41;;;;;;;14.05;3.58;;;;;;;;;;5028975;28;99984;-76
2023/03/04 13:28:17;;;;;;;8.13;2.25;;;;;;;;;;5029264;27;98484;-77
2023/03/04 13:30:55;;;;;;;15.57;2.47;;;;;;;;;;5029330;27;98776;-76
2023/03/04 13:33:21;;;;;;;14.88;2.60;;;;;;;;;;5026709;28;99954;-77
2023/03/04 13:35:53;;;;;;;8.55;2.17;;;;;;;;;;5028433;27;98511;-77
2023/03/04 13:38:26;;;;;;;9.90;2.40;;;;;;;;;;5030084;28;98564;-77
2023/03/04 13:41:13;;;;;;;19.23;2.90;;;;;;;;;;5029608;27;98120;-76
2023/03/04 13:43:39;;;;;;;8.50;2.35;;;;;;;;;;5030177;28;98273;-77
2023/03/04 13:46:26;;;;;;;10.13;3.35;;;;;;;;;;5032302;28;98442;-77
2023/03/04 13:48:55;;;;;;;11.48;2.78;;;;;;;;;;5024687;27;98316;-77
2023/03/04 13:51:22;;;;;;;9.63;2.22;;;;;;;;;;5028694;28;99580;-78
2023/03/04 13:53:55;;;;;;;7.28;1.92;;;;;;;;;;5027514;27;99058;-77
2023/03/04 13:56:23;;;;;;;8.80;1.70;;;;;;;;;;5029690;28;98673;-77
2023/03/04 13:58:51;;;;;;;7.75;1.70;;;;;;;;;;5030365;27;99862;-77
2023/03/04 14:01:39;;;;;;;5.20;1.50;;;;;;;;;;5029556;27;99990;-77
2023/03/04 14:04:11;;;;;;;4.57;1.77;;;;;;;;;;5014632;28;98467;-77
2023/03/04 14:06:42;;;;;;;4.65;1.35;;;;;;;;;;5028155;27;98832;-77
2023/03/04 14:09:12;;;;;;;4.55;1.20;;;;;;;;;;5027842;28;100136;-76
2023/03/04 14:11:41;;;;;;;4.47;1.25;;;;;;;;;;5022926;27;99929;-77
2023/03/04 14:14:33;;;;;;;6.72;0.95;;;;;;;;;;5027309;27;99173;-75
2023/03/04 14:17:04;;;;;;;5.72;1.33;;;;;;;;;;5025520;28;98412;-76
2023/03/04 14:19:34;;;;;;;2.88;1.00;;;;;;;;;;5026206;27;98776;-76
2023/03/04 14:22:01;;;;;;;2.75;1.25;;;;;;;;;;5028569;28;98841;-76
2023/03/04 14:24:29;;;;;;;10.38;1.08;;;;;;;;;;5028370;28;98186;-77
2023/03/04 14:27:10;;;;;;;2.47;0.73;;;;;;;;;;5028984;27;99435;-76
2023/03/04 14:29:36;;;;;;;2.72;1.23;;;;;;;;;;5031052;27;99887;-76
2023/03/04 14:32:03;;;;;;;7.50;1.60;;;;;;;;;;5029707;28;99365;-77
2023/03/04 14:34:32;;;;;;;5.25;1.33;;;;;;;;;;5026499;27;99116;-76
2023/03/04 14:36:58;;;;;;;9.07;2.15;;;;;;;;;;5025845;27;98972;-75
2023/03/04 14:39:27;;;;;;;5.93;1.95;;;;;;;;;;5028637;28;98599;-75
2023/03/04 14:41:55;;;;;;;6.85;1.63;;;;;;;;;;5028927;27;99189;-75
2023/03/04 14:44:34;;;;;;;6.93;2.67;;;;;;;;;;5028544;28;98708;-75
2023/03/04 14:47:25;;;;;;;6.00;1.60;;;;;;;;;;5024597;27;99255;-76
2023/03/04 14:49:52;;;;;;;3.60;1.35;;;;;;;;;;5005354;27;98990;-76